Time;durP1;ratioP1;P1;durP2;ratioP2;P2;SDS_P1;SDS_P2;PMS_P1;PMS_P2;Temp;Humidity;BMP_temperature;BMP_pressure;BME280_temperature;BME280_humidity;BME280_pressure;Samples;Min_cycle;Max_cycle;Signal;HPM_P1;HPM_P2
2023/04/23 00:00:04;;;;;;;;;;;7.70;99.90;;;;;;5093368;28;19966;-78
2023/04/23 00:02:32;;;;;;;;;;;7.70;99.90;;;;;;5086493;28;19967;-78
2023/04/23 00:05:01;;;;;;;;;;;7.70;99.90;;;;;;5081828;28;20395;-78
2023/04/23 00:07:27;;;;;;;;;;;7.70;99.90;;;;;;5093117;28;19960;-78
2023/04/23 00:09:56;;;;;;;;;;;7.70;99.90;;;;;;5059678;28;19951;-78
2023/04/23 00:12:22;;;;;;;;;;;7.70;99.90;;;;;;5106464;28;19956;-78
2023/04/23 00:14:48;;;;;;;;;;;7.70;99.90;;;;;;5076146;28;19925;-78
2023/04/23 00:17:13;;;;;;;;;;;7.70;99.90;;;;;;5093640;28;19931;-78
2023/04/23 00:19:39;;;;;;;;;;;7.70;99.90;;;;;;5061174;28;19925;-78
2023/04/23 00:22:05;;;;;;;;;;;7.70;99.90;;;;;;5077361;28;19977;-78
2023/04/23 00:24:32;;;;;;;;;;;7.70;99.90;;;;;;5060851;28;19971;-78
2023/04/23 00:26:58;;;;;;;;;;;7.70;99.90;;;;;;5069528;28;19925;-78
2023/04/23 00:29:24;;;;;;;;;;;7.70;99.90;;;;;;5094149;28;19995;-78
2023/04/23 00:31:49;;;;;;;;;;;7.70;99.90;;;;;;5079607;28;19931;-78
2023/04/23 00:34:15;;;;;;;;;;;7.70;99.90;;;;;;5079332;28;20291;-78
2023/04/23 00:36:40;;;;;;;;;;;7.70;99.90;;;;;;5061467;28;19928;-78
2023/04/23 00:39:06;;;;;;;;;;;7.80;99.90;;;;;;5073599;28;19931;-78
2023/04/23 00:41:32;;;;;;;;;;;7.70;99.90;;;;;;5073664;28;19946;-78
2023/04/23 00:43:58;;;;;;;;;;;7.80;99.90;;;;;;5094983;28;19928;-78
2023/04/23 00:46:25;;;;;;;;;;;7.80;99.90;;;;;;5073769;28;19935;-78
2023/04/23 00:48:51;;;;;;;;;;;7.80;99.90;;;;;;5049899;28;19967;-78
2023/04/23 00:51:16;;;;;;;;;;;7.90;99.90;;;;;;5060112;28;19936;-78
2023/04/23 00:53:42;;;;;;;;;;;7.80;99.90;;;;;;5054783;28;19924;-78
2023/04/23 00:56:08;;;;;;;;;;;7.90;99.90;;;;;;5078884;28;20423;-79
2023/04/23 00:58:34;;;;;;;;;;;7.90;99.90;;;;;;5048787;28;19928;-78
2023/04/23 01:01:01;;;;;;;;;;;7.90;99.90;;;;;;5091526;28;20357;-78
2023/04/23 01:03:28;;;;;;;;;;;7.90;99.90;;;;;;5093183;28;19925;-78
2023/04/23 01:05:54;;;;;;;;;;;7.90;99.90;;;;;;5072783;28;19997;-78
2023/04/23 01:08:21;;;;;;;;;;;7.90;99.90;;;;;;5053344;28;20400;-78
2023/04/23 01:10:47;;;;;;;;;;;7.90;99.90;;;;;;5092350;28;19924;-78
2023/04/23 01:13:12;;;;;;;;;;;7.90;99.90;;;;;;5077257;28;20493;-78
2023/04/23 01:15:38;;;;;;;;;;;7.90;99.90;;;;;;5093266;28;19924;-78
2023/04/23 01:18:06;;;;;;;;;;;7.90;99.90;;;;;;5079652;28;19932;-78
2023/04/23 01:20:34;;;;;;;;;;;7.90;99.90;;;;;;5074656;28;19956;-78
2023/04/23 01:23:03;;;;;;;;;;;7.80;99.90;;;;;;5091220;28;19929;-78
2023/04/23 01:25:29;;;;;;;;;;;7.80;99.90;;;;;;5092344;28;20039;-78
2023/04/23 01:27:55;;;;;;;;;;;7.80;99.90;;;;;;5076638;28;20007;-78
2023/04/23 01:30:22;;;;;;;;;;;7.80;99.90;;;;;;5075306;28;20628;-78
2023/04/23 01:32:48;;;;;;;;;;;7.80;99.90;;;;;;5077341;28;19925;-78
2023/04/23 01:35:13;;;;;;;;;;;7.80;99.90;;;;;;5092341;28;19991;-78
2023/04/23 01:37:39;;;;;;;;;;;7.80;99.90;;;;;;5093691;28;19932;-78
2023/04/23 01:40:06;;;;;;;;;;;7.80;99.90;;;;;;5091727;28;19928;-78
2023/04/23 01:42:32;;;;;;;;;;;7.80;99.90;;;;;;5070365;28;19971;-78
2023/04/23 01:44:58;;;;;;;;;;;7.80;99.90;;;;;;5074290;28;19950;-78
2023/04/23 01:47:23;;;;;;;;;;;7.70;99.90;;;;;;5091331;28;20120;-78
2023/04/23 01:49:49;;;;;;;;;;;7.70;99.90;;;;;;5075121;28;19940;-78
2023/04/23 01:52:14;;;;;;;;;;;7.70;99.90;;;;;;5092001;28;19970;-78
2023/04/23 01:54:40;;;;;;;;;;;7.70;99.90;;;;;;5073795;28;20299;-78
2023/04/23 01:57:06;;;;;;;;;;;7.60;99.90;;;;;;5090881;28;19931;-78
2023/04/23 01:59:31;;;;;;;;;;;7.60;99.90;;;;;;5075787;28;19947;-78
2023/04/23 02:01:57;;;;;;;;;;;7.50;99.90;;;;;;5075600;28;19924;-78
2023/04/23 02:04:22;;;;;;;;;;;7.50;99.90;;;;;;5064854;28;19924;-78
2023/04/23 02:06:49;;;;;;;;;;;7.50;99.90;;;;;;5074882;28;19928;-78
2023/04/23 02:09:15;;;;;;;;;;;7.40;99.90;;;;;;5071292;28;19979;-78
2023/04/23 02:11:41;;;;;;;;;;;7.40;99.90;;;;;;5053228;28;19928;-78
2023/04/23 02:14:07;;;;;;;;;;;7.40;99.90;;;;;;5108928;28;19934;-78
2023/04/23 02:16:33;;;;;;;;;;;7.40;99.90;;;;;;5059496;28;19932;-78
2023/04/23 02:19:00;;;;;;;;;;;7.30;99.90;;;;;;5075075;28;19925;-78
2023/04/23 02:21:26;;;;;;;;;;;7.30;99.90;;;;;;5075417;28;20447;-78
2023/04/23 02:23:52;;;;;;;;;;;7.30;99.90;;;;;;5058580;28;20374;-78
2023/04/23 02:26:18;;;;;;;;;;;7.30;99.90;;;;;;5091132;28;19936;-78
2023/04/23 02:28:44;;;;;;;;;;;7.30;99.90;;;;;;5088716;28;19932;-78
2023/04/23 02:31:10;;;;;;;;;;;7.30;99.90;;;;;;5090137;28;19931;-78
2023/04/23 02:33:35;;;;;;;;;;;7.40;99.90;;;;;;5058539;28;19983;-78
2023/04/23 02:36:01;;;;;;;;;;;7.40;99.90;;;;;;5090379;28;19932;-78
2023/04/23 02:38:26;;;;;;;;;;;7.50;99.90;;;;;;5057471;28;20263;-78
2023/04/23 02:40:52;;;;;;;;;;;7.50;99.90;;;;;;5074500;28;19924;-78
2023/04/23 02:43:18;;;;;;;;;;;7.60;99.90;;;;;;5089559;28;20511;-78
2023/04/23 02:45:46;;;;;;;;;;;7.60;99.90;;;;;;5074733;28;19928;-78
2023/04/23 02:48:12;;;;;;;;;;;7.70;99.90;;;;;;5040489;28;20388;-78
2023/04/23 02:50:38;;;;;;;;;;;7.70;99.90;;;;;;5059095;28;19924;-78
2023/04/23 02:53:04;;;;;;;;;;;7.70;99.90;;;;;;5079125;28;21172;-78
2023/04/23 02:55:30;;;;;;;;;;;7.70;99.90;;;;;;5092017;28;19924;-78
2023/04/23 02:57:57;;;;;;;;;;;7.70;99.90;;;;;;5074291;28;19931;-78
2023/04/23 03:00:23;;;;;;;;;;;7.70;99.90;;;;;;5073453;28;20067;-78
2023/04/23 03:02:49;;;;;;;;;;;7.70;99.90;;;;;;5094138;28;20008;-78
2023/04/23 03:05:14;;;;;;;;;;;7.70;99.90;;;;;;5092457;28;19972;-78
2023/04/23 03:07:40;;;;;;;;;;;7.70;99.90;;;;;;5095422;28;20433;-78
2023/04/23 03:10:06;;;;;;;;;;;7.70;99.90;;;;;;5062912;28;19925;-78
2023/04/23 03:12:31;;;;;;;;;;;7.70;99.90;;;;;;5055329;28;19924;-78
2023/04/23 03:14:57;;;;;;;;;;;7.60;99.90;;;;;;5094826;28;19969;-78
2023/04/23 03:17:22;;;;;;;;;;;7.60;99.90;;;;;;5078367;28;19924;-78
2023/04/23 03:19:48;;;;;;;;;;;7.60;99.90;;;;;;5078556;28;19924;-78
2023/04/23 03:22:13;;;;;;;;;;;7.70;99.90;;;;;;5062687;28;20019;-78
2023/04/23 03:24:39;;;;;;;;;;;7.60;99.90;;;;;;5074808;28;19978;-78
2023/04/23 03:27:05;;;;;;;;;;;7.60;99.90;;;;;;5076719;28;19967;-78
2023/04/23 03:29:30;;;;;;;;;;;7.60;99.90;;;;;;5078092;28;19928;-78
2023/04/23 03:31:56;;;;;;;;;;;7.70;99.90;;;;;;5078185;28;20000;-78
2023/04/23 03:34:21;;;;;;;;;;;7.70;99.90;;;;;;5077854;28;19925;-78
2023/04/23 03:36:47;;;;;;;;;;;7.70;99.90;;;;;;5077932;28;20378;-78
2023/04/23 03:39:13;;;;;;;;;;;7.70;99.90;;;;;;5092948;28;19924;-78
2023/04/23 03:41:39;;;;;;;;;;;7.70;99.90;;;;;;5077086;28;19968;-78
2023/04/23 03:44:05;;;;;;;;;;;7.70;99.90;;;;;;5064279;28;19928;-78
2023/04/23 03:46:30;;;;;;;;;;;7.70;99.90;;;;;;5063543;28;19924;-78
2023/04/23 03:48:56;;;;;;;;;;;7.70;99.90;;;;;;5095423;28;20006;-79
2023/04/23 03:51:21;;;;;;;;;;;7.70;99.90;;;;;;5074910;28;20010;-78
2023/04/23 03:53:47;;;;;;;;;;;7.70;99.90;;;;;;5079637;28;19963;-78
2023/04/23 03:56:13;;;;;;;;;;;7.70;99.90;;;;;;5075043;28;19925;-78
2023/04/23 03:58:38;;;;;;;;;;;7.70;99.90;;;;;;5075716;28;19924;-78
2023/04/23 04:01:04;;;;;;;;;;;7.70;99.90;;;;;;5093237;28;20332;-78
2023/04/23 04:03:30;;;;;;;;;;;7.70;99.90;;;;;;5088810;28;19994;-78
2023/04/23 04:05:55;;;;;;;;;;;7.70;99.90;;;;;;5079613;28;20505;-78
2023/04/23 04:08:21;;;;;;;;;;;7.70;99.90;;;;;;5061852;28;19984;-78
2023/04/23 04:10:46;;;;;;;;;;;7.70;99.90;;;;;;5077388;28;19997;-78
2023/04/23 04:13:14;;;;;;;;;;;7.70;99.90;;;;;;5093765;28;19924;-78
2023/04/23 04:15:40;;;;;;;;;;;7.70;99.90;;;;;;5075241;28;19933;-78
2023/04/23 04:18:05;;;;;;;;;;;7.70;99.90;;;;;;5077241;28;19936;-78
2023/04/23 04:20:31;;;;;;;;;;;7.70;99.90;;;;;;5093443;28;19924;-78
2023/04/23 04:22:57;;;;;;;;;;;7.70;99.90;;;;;;5062197;28;19932;-78
2023/04/23 04:25:23;;;;;;;;;;;7.70;99.90;;;;;;5077531;28;19925;-78
2023/04/23 04:27:48;;;;;;;;;;;7.70;99.90;;;;;;5076055;28;19924;-79
2023/04/23 04:30:14;;;;;;;;;;;7.70;99.90;;;;;;5058173;28;19928;-79
2023/04/23 04:32:41;;;;;;;;;;;7.70;99.90;;;;;;5094416;28;19940;-78
2023/04/23 04:35:07;;;;;;;;;;;7.70;99.90;;;;;;5042922;28;20192;-78
2023/04/23 04:37:33;;;;;;;;;;;7.80;99.90;;;;;;5073062;28;19931;-79
2023/04/23 04:40:00;;;;;;;;;;;7.80;99.90;;;;;;5074287;28;20371;-78
2023/04/23 04:42:26;;;;;;;;;;;7.80;99.90;;;;;;5079115;28;20383;-78
2023/04/23 04:44:51;;;;;;;;;;;7.80;99.90;;;;;;5061023;28;19936;-79
2023/04/23 04:47:17;;;;;;;;;;;7.80;99.90;;;;;;5075064;28;19932;-79
2023/04/23 04:49:43;;;;;;;;;;;7.90;99.90;;;;;;5061975;28;20008;-79
2023/04/23 04:52:09;;;;;;;;;;;7.90;99.90;;;;;;5059416;28;19924;-79
2023/04/23 04:54:35;;;;;;;;;;;7.90;99.90;;;;;;5071828;28;20008;-79
2023/04/23 04:57:01;;;;;;;;;;;8.00;99.90;;;;;;5093936;28;20396;-79
2023/04/23 04:59:27;;;;;;;;;;;8.00;99.90;;;;;;5075122;28;20016;-79
2023/04/23 05:01:52;;;;;;;;;;;8.00;99.90;;;;;;5061989;28;19924;-79
2023/04/23 05:04:18;;;;;;;;;;;8.10;99.90;;;;;;5076395;28;19947;-79
2023/04/23 05:06:43;;;;;;;;;;;8.10;99.90;;;;;;5077005;28;19972;-79
2023/04/23 05:09:09;;;;;;;;;;;8.10;99.90;;;;;;5075232;28;20494;-80
2023/04/23 05:11:35;;;;;;;;;;;8.10;99.90;;;;;;5076709;28;19924;-80
2023/04/23 05:14:00;;;;;;;;;;;8.20;99.90;;;;;;5077365;28;19925;-80
2023/04/23 05:16:26;;;;;;;;;;;8.20;99.90;;;;;;5082353;28;19936;-79
2023/04/23 05:18:52;;;;;;;;;;;8.30;99.90;;;;;;5074372;28;19924;-80
2023/04/23 05:21:18;;;;;;;;;;;8.30;99.90;;;;;;5068966;28;19928;-79
2023/04/23 05:23:43;;;;;;;;;;;8.30;99.90;;;;;;5090670;28;19928;-79
2023/04/23 05:26:09;;;;;;;;;;;8.40;99.90;;;;;;5085268;28;19965;-79
2023/04/23 05:28:35;;;;;;;;;;;8.40;99.90;;;;;;5075320;28;19924;-80
2023/04/23 05:31:01;;;;;;;;;;;8.40;99.90;;;;;;5040633;28;19928;-79
2023/04/23 05:33:27;;;;;;;;;;;8.40;99.90;;;;;;5091744;28;19964;-79
2023/04/23 05:35:53;;;;;;;;;;;8.50;99.90;;;;;;5093290;28;20360;-79
2023/04/23 05:38:19;;;;;;;;;;;8.50;99.90;;;;;;5082757;28;19995;-79
2023/04/23 05:40:44;;;;;;;;;;;8.50;99.90;;;;;;5048643;28;19932;-79
2023/04/23 05:43:11;;;;;;;;;;;8.60;99.90;;;;;;5059871;28;19924;-80
2023/04/23 05:45:36;;;;;;;;;;;8.70;99.90;;;;;;5059597;28;20011;-80
2023/04/23 05:48:02;;;;;;;;;;;8.80;99.90;;;;;;5092246;28;20355;-79
2023/04/23 05:50:28;;;;;;;;;;;9.00;99.90;;;;;;5071078;28;19929;-79
2023/04/23 05:52:53;;;;;;;;;;;9.00;99.90;;;;;;5077108;28;20284;-79
2023/04/23 05:55:20;;;;;;;;;;;9.20;99.90;;;;;;5091556;28;20033;-80
2023/04/23 05:57:45;;;;;;;;;;;9.30;99.90;;;;;;5077683;28;20378;-79
2023/04/23 06:00:11;;;;;;;;;;;9.40;99.90;;;;;;5074773;28;19925;-79
2023/04/23 06:02:37;;;;;;;;;;;9.50;99.90;;;;;;5060317;28;19935;-80
2023/04/23 06:05:03;;;;;;;;;;;9.70;99.90;;;;;;5089080;28;19925;-80
2023/04/23 06:07:29;;;;;;;;;;;9.80;99.90;;;;;;5060702;28;19924;-80
2023/04/23 06:09:54;;;;;;;;;;;9.80;99.90;;;;;;5072998;28;19932;-80
2023/04/23 06:12:20;;;;;;;;;;;9.90;99.90;;;;;;5075706;28;19952;-80
2023/04/23 06:14:46;;;;;;;;;;;9.90;99.90;;;;;;5091504;28;19925;-80
2023/04/23 06:17:12;;;;;;;;;;;9.90;99.90;;;;;;5091839;28;19924;-80
2023/04/23 06:19:37;;;;;;;;;;;10.00;99.90;;;;;;5059168;28;19951;-80
2023/04/23 06:22:03;;;;;;;;;;;10.00;99.90;;;;;;5074359;28;19924;-80
2023/04/23 06:24:29;;;;;;;;;;;10.00;99.90;;;;;;5091798;28;19954;-80
2023/04/23 06:26:55;;;;;;;;;;;10.10;99.90;;;;;;5074714;28;19929;-80
2023/04/23 06:29:20;;;;;;;;;;;10.20;99.90;;;;;;5092322;28;19924;-80
2023/04/23 06:31:46;;;;;;;;;;;10.30;99.90;;;;;;5091162;28;19950;-80
2023/04/23 06:34:11;;;;;;;;;;;10.40;99.90;;;;;;5074685;28;19972;-80
2023/04/23 06:36:37;;;;;;;;;;;10.40;99.90;;;;;;5072482;28;19925;-80
2023/04/23 06:39:03;;;;;;;;;;;10.50;99.90;;;;;;5071838;28;19935;-80
2023/04/23 06:41:28;;;;;;;;;;;10.60;99.90;;;;;;5066455;28;19933;-80
2023/04/23 06:43:54;;;;;;;;;;;10.90;99.90;;;;;;5074813;28;19929;-80
2023/04/23 06:46:19;;;;;;;;;;;11.20;99.90;;;;;;5074536;28;19987;-80
2023/04/23 06:48:45;;;;;;;;;;;11.50;99.90;;;;;;5057431;28;20459;-80
2023/04/23 06:51:10;;;;;;;;;;;11.60;99.90;;;;;;5088840;28;19924;-80
2023/04/23 06:53:36;;;;;;;;;;;11.70;99.90;;;;;;5070342;28;19924;-80
2023/04/23 06:56:02;;;;;;;;;;;11.90;99.90;;;;;;5064731;28;19950;-80
2023/04/23 06:58:31;;;;;;;;;;;12.10;99.90;;;;;;5074060;28;19983;-80
2023/04/23 07:01:00;;;;;;;;;;;12.20;99.90;;;;;;5075561;28;19924;-80
2023/04/23 07:03:30;;;;;;;;;;;12.20;99.90;;;;;;5041600;28;19935;-80
2023/04/23 07:05:56;;;;;;;;;;;12.30;99.90;;;;;;5063885;28;19928;-80
2023/04/23 07:08:21;;;;;;;;;;;12.50;99.90;;;;;;5062998;28;19928;-80
2023/04/23 07:10:47;;;;;;;;;;;12.60;99.90;;;;;;5091534;28;20380;-80
2023/04/23 07:13:13;;;;;;;;;;;12.70;99.90;;;;;;5072314;28;19951;-80
2023/04/23 07:15:38;;;;;;;;;;;13.00;99.90;;;;;;5057168;28;19924;-80
2023/04/23 07:18:05;;;;;;;;;;;13.10;99.90;;;;;;5070879;28;19933;-80
2023/04/23 07:20:31;;;;;;;;;;;13.40;99.90;;;;;;5056799;28;19928;-80
2023/04/23 07:22:57;;;;;;;;;;;13.80;99.90;;;;;;5037482;28;19936;-80
2023/04/23 07:25:23;;;;;;;;;;;14.30;99.90;;;;;;5073370;28;20313;-80
2023/04/23 07:27:49;;;;;;;;;;;14.70;99.90;;;;;;5065285;28;19928;-80
2023/04/23 07:30:15;;;;;;;;;;;14.90;99.90;;;;;;5071556;28;19967;-80
2023/04/23 07:32:40;;;;;;;;;;;15.00;99.90;;;;;;5102086;28;19924;-80
2023/04/23 07:35:07;;;;;;;;;;;15.10;99.90;;;;;;5039865;28;20668;-78
2023/04/23 07:37:32;;;;;;;;;;;15.30;99.90;;;;;;5075663;28;19931;-78
2023/04/23 07:39:59;;;;;;;;;;;15.80;99.90;;;;;;5042229;28;19929;-78
2023/04/23 07:42:25;;;;;;;;;;;15.90;99.90;;;;;;5074734;28;19940;-78
2023/04/23 07:44:50;;;;;;;;;;;16.10;99.90;;;;;;5058141;28;19934;-78
2023/04/23 07:47:16;;;;;;;;;;;16.30;99.90;;;;;;5092400;28;19924;-78
2023/04/23 07:49:42;;;;;;;;;;;16.60;99.90;;;;;;5078217;28;19924;-78
2023/04/23 07:52:07;;;;;;;;;;;16.80;99.90;;;;;;5079940;28;19929;-78
2023/04/23 07:54:33;;;;;;;;;;;17.10;99.90;;;;;;5077344;28;19924;-79
2023/04/23 07:56:59;;;;;;;;;;;17.20;99.90;;;;;;5062859;28;19928;-78
2023/04/23 07:59:24;;;;;;;;;;;17.40;99.90;;;;;;5078373;28;19929;-78
2023/04/23 08:01:50;;;;;;;;;;;17.60;99.90;;;;;;5095948;28;19974;-78
2023/04/23 08:04:16;;;;;;;;;;;17.90;99.90;;;;;;5075377;28;19951;-78
2023/04/23 08:06:41;;;;;;;;;;;18.10;99.90;;;;;;5071253;28;19971;-78
2023/04/23 08:09:08;;;;;;;;;;;18.40;99.90;;;;;;5051620;28;19936;-78
2023/04/23 08:11:33;;;;;;;;;;;18.50;99.90;;;;;;5089318;28;19924;-79
2023/04/23 08:14:00;;;;;;;;;;;18.50;99.90;;;;;;5097307;28;20468;-78
2023/04/23 08:16:26;;;;;;;;;;;18.70;99.90;;;;;;5051613;28;19924;-78
2023/04/23 08:18:51;;;;;;;;;;;18.70;99.90;;;;;;5056092;28;19932;-79
2023/04/23 08:21:17;;;;;;;;;;;18.70;99.90;;;;;;5072929;28;19931;-79
2023/04/23 08:23:43;;;;;;;;;;;18.80;99.90;;;;;;5080366;28;19924;-78
2023/04/23 08:26:09;;;;;;;;;;;18.80;99.90;;;;;;5083672;28;19924;-79
2023/04/23 08:28:34;;;;;;;;;;;19.00;99.90;;;;;;5045276;28;19924;-78
2023/04/23 08:31:00;;;;;;;;;;;19.00;99.90;;;;;;5062173;28;20358;-78
2023/04/23 08:33:26;;;;;;;;;;;19.10;99.90;;;;;;5071993;28;20421;-77
2023/04/23 08:35:51;;;;;;;;;;;19.30;99.90;;;;;;5071401;28;19928;-78
2023/04/23 08:38:17;;;;;;;;;;;19.50;99.90;;;;;;5083864;28;20307;-78
2023/04/23 08:40:44;;;;;;;;;;;19.60;99.90;;;;;;5047956;28;19929;-78
2023/04/23 08:43:15;;;;;;;;;;;19.70;99.90;;;;;;5065231;28;19925;-78
2023/04/23 08:45:42;;;;;;;;;;;19.80;99.90;;;;;;5059765;28;19925;-79
2023/04/23 08:48:08;;;;;;;;;;;20.00;99.90;;;;;;5060355;28;19928;-79
2023/04/23 08:50:36;;;;;;;;;;;19.90;99.70;;;;;;5079443;28;19933;-78
2023/04/23 08:53:03;;;;;;;;;;;19.90;99.90;;;;;;5075645;28;20287;-78
2023/04/23 08:55:32;;;;;;;;;;;20.10;99.90;;;;;;5085294;28;20139;-79
2023/04/23 08:57:58;;;;;;;;;;;20.00;99.90;;;;;;5061450;28;19928;-78
2023/04/23 09:00:24;;;;;;;;;;;20.10;99.90;;;;;;5040921;28;19932;-78
2023/04/23 09:02:50;;;;;;;;;;;20.30;99.90;;;;;;5082987;28;19925;-79
2023/04/23 09:05:16;;;;;;;;;;;20.20;99.90;;;;;;5090268;28;19932;-78
2023/04/23 09:07:41;;;;;;;;;;;20.00;99.90;;;;;;5094808;28;19924;-78
2023/04/23 09:10:08;;;;;;;;;;;19.70;99.90;;;;;;5077900;28;20545;-78
2023/04/23 09:12:34;;;;;;;;;;;19.30;99.90;;;;;;5077971;28;19924;-78
2023/04/23 09:15:00;;;;;;;;;;;19.20;99.90;;;;;;5077425;28;19925;-78
2023/04/23 09:17:30;;;;;;;;;;;19.00;99.90;;;;;;5067235;28;19993;-78
2023/04/23 09:19:56;;;;;;;;;;;19.00;99.90;;;;;;5044410;28;19936;-78
2023/04/23 09:22:41;;;;;;;;;;;19.20;99.90;;;;;;5091408;28;19925;-78
2023/04/23 09:25:10;;;;;;;;;;;19.40;99.90;;;;;;5088680;28;20399;-78
2023/04/23 09:27:36;;;;;;;;;;;19.80;99.90;;;;;;5080182;28;19935;-78
2023/04/23 09:30:09;;;;;;;;;;;20.10;99.90;;;;;;5089585;28;19924;-79
2023/04/23 09:32:40;;;;;;;;;;;20.30;99.80;;;;;;5093265;28;19999;-79
2023/04/23 09:35:06;;;;;;;;;;;20.20;95.60;;;;;;5087141;28;19967;-78
2023/04/23 09:37:32;;;;;;;;;;;19.60;95.00;;;;;;5092758;28;20383;-78
2023/04/23 09:40:03;;;;;;;;;;;19.50;99.90;;;;;;5076229;28;19924;-78
2023/04/23 09:42:29;;;;;;;;;;;19.40;97.60;;;;;;5059000;28;19925;-79
2023/04/23 09:45:03;;;;;;;;;;;19.60;99.90;;;;;;5059892;28;19971;-78
2023/04/23 09:47:33;;;;;;;;;;;19.70;99.80;;;;;;5076882;28;19939;-79
2023/04/23 09:49:59;;;;;;;;;;;19.40;99.40;;;;;;5066685;28;19975;-78
2023/04/23 09:52:25;;;;;;;;;;;19.00;98.90;;;;;;5061951;28;19932;-78
2023/04/23 09:54:51;;;;;;;;;;;19.20;99.90;;;;;;5060309;28;19935;-79
2023/04/23 09:57:17;;;;;;;;;;;19.60;99.90;;;;;;5060653;28;20319;-78
2023/04/23 09:59:43;;;;;;;;;;;20.10;99.90;;;;;;5061237;28;19990;-78
2023/04/23 10:02:09;;;;;;;;;;;20.20;99.90;;;;;;5093979;28;19932;-78
2023/04/23 10:04:35;;;;;;;;;;;20.50;98.00;;;;;;5076041;28;19932;-78
2023/04/23 10:07:03;;;;;;;;;;;20.40;99.90;;;;;;5093635;28;19924;-78
2023/04/23 10:09:29;;;;;;;;;;;20.30;99.90;;;;;;5076606;28;19925;-78
2023/04/23 10:11:58;;;;;;;;;;;20.00;99.90;;;;;;5059364;28;19932;-78
2023/04/23 10:14:24;;;;;;;;;;;19.40;99.90;;;;;;5067817;28;20015;-78
2023/04/23 10:16:52;;;;;;;;;;;19.10;99.90;;;;;;5075405;28;19928;-79
2023/04/23 10:19:18;;;;;;;;;;;18.70;97.90;;;;;;5094775;28;19929;-78
2023/04/23 10:21:45;;;;;;;;;;;18.60;99.90;;;;;;5065588;28;19987;-78
2023/04/23 10:24:12;;;;;;;;;;;18.90;99.90;;;;;;5091836;28;20019;-78
2023/04/23 10:26:40;;;;;;;;;;;19.30;99.90;;;;;;5063282;28;19938;-78
2023/04/23 10:29:08;;;;;;;;;;;19.40;99.90;;;;;;5092115;28;19925;-78
2023/04/23 10:31:35;;;;;;;;;;;19.60;99.90;;;;;;5075960;28;19931;-78
2023/04/23 10:34:04;;;;;;;;;;;19.70;99.90;;;;;;5074835;28;19924;-78
2023/04/23 10:36:32;;;;;;;;;;;19.70;99.90;;;;;;5074302;28;19948;-79
2023/04/23 10:39:02;;;;;;;;;;;19.80;98.40;;;;;;5091713;28;19932;-78
2023/04/23 10:41:34;;;;;;;;;;;20.00;99.90;;;;;;5058254;28;19973;-78
2023/04/23 10:43:59;;;;;;;;;;;20.30;99.50;;;;;;5075377;28;20569;-78
2023/04/23 10:46:29;;;;;;;;;;;20.30;93.00;;;;;;5058629;28;19967;-79
2023/04/23 10:49:09;;;;;;;;;;;20.20;88.90;;;;;;5092601;28;19926;-78
2023/04/23 10:51:35;;;;;;;;;;;20.10;89.20;;;;;;5093145;28;19984;-79
2023/04/23 10:54:04;;;;;;;;;;;20.10;96.50;;;;;;5061140;28;19931;-78
2023/04/23 10:56:30;;;;;;;;;;;20.00;84.50;;;;;;5078651;28;20161;-79
2023/04/23 10:58:56;;;;;;;;;;;19.80;92.70;;;;;;5089771;28;19938;-78
2023/04/23 11:01:27;;;;;;;;;;;19.70;94.00;;;;;;5059254;28;19992;-78
2023/04/23 11:03:52;;;;;;;;;;;19.60;91.20;;;;;;5062433;28;19971;-78
2023/04/23 11:06:19;;;;;;;;;;;19.50;95.30;;;;;;5092437;28;19955;-78
2023/04/23 11:08:51;;;;;;;;;;;19.40;86.60;;;;;;5075583;28;19956;-78
2023/04/23 11:11:16;;;;;;;;;;;19.60;94.10;;;;;;5082152;28;20536;-78
2023/04/23 11:13:52;;;;;;;;;;;19.70;90.10;;;;;;5038789;28;19929;-78
2023/04/23 11:16:22;;;;;;;;;;;20.00;91.10;;;;;;5060525;28;19925;-78
2023/04/23 11:18:58;;;;;;;;;;;20.00;79.00;;;;;;5075179;28;19992;-78
2023/04/23 11:21:43;;;;;;;;;;;19.90;80.80;;;;;;5082585;28;19993;-78
2023/04/23 11:24:09;;;;;;;;;;;20.10;91.80;;;;;;5071426;28;19925;-79
2023/04/23 11:26:35;;;;;;;;;;;20.10;85.00;;;;;;5063403;28;19928;-78
2023/04/23 11:29:01;;;;;;;;;;;20.10;86.00;;;;;;5076569;28;19943;-78
2023/04/23 11:31:26;;;;;;;;;;;20.30;90.60;;;;;;5047145;28;19924;-78
2023/04/23 11:33:53;;;;;;;;;;;20.50;92.10;;;;;;5078211;28;19924;-78
2023/04/23 11:36:18;;;;;;;;;;;20.50;88.40;;;;;;5081430;28;20398;-78
2023/04/23 11:38:45;;;;;;;;;;;20.40;80.60;;;;;;5044715;28;19929;-78
2023/04/23 11:41:11;;;;;;;;;;;20.10;83.10;;;;;;5079314;28;19925;-78
2023/04/23 11:43:36;;;;;;;;;;;20.10;83.40;;;;;;5046665;28;19924;-78
2023/04/23 11:46:02;;;;;;;;;;;20.10;87.60;;;;;;5077157;28;19924;-78
2023/04/23 11:48:27;;;;;;;;;;;20.10;85.50;;;;;;5095390;28;19924;-78
2023/04/23 11:50:53;;;;;;;;;;;20.20;87.00;;;;;;5093009;28;19994;-80
2023/04/23 11:53:20;;;;;;;;;;;20.10;80.80;;;;;;5057870;28;19924;-79
2023/04/23 11:55:47;;;;;;;;;;;20.10;85.10;;;;;;5087477;28;19999;-80
2023/04/23 11:58:16;;;;;;;;;;;20.10;82.90;;;;;;5079120;28;19924;-80
2023/04/23 12:00:42;;;;;;;;;;;20.00;79.60;;;;;;5062893;28;19967;-80
2023/04/23 12:03:07;;;;;;;;;;;19.90;80.80;;;;;;5095756;28;20082;-80
2023/04/23 12:05:35;;;;;;;;;;;20.00;89.70;;;;;;5079594;28;19924;-80
2023/04/23 12:08:08;;;;;;;;;;;20.10;88.50;;;;;;5078757;28;19924;-80
2023/04/23 12:10:40;;;;;;;;;;;20.10;85.80;;;;;;5049504;28;19946;-80
2023/04/23 12:13:06;;;;;;;;;;;20.00;77.30;;;;;;5059760;28;19928;-81
2023/04/23 12:15:42;;;;;;;;;;;19.90;75.30;;;;;;5077722;28;19924;-81
2023/04/23 12:18:08;;;;;;;;;;;20.00;83.30;;;;;;5079441;28;20329;-80
2023/04/23 12:20:34;;;;;;;;;;;20.00;81.90;;;;;;5093023;28;19947;-81
2023/04/23 12:23:04;;;;;;;;;;;19.80;86.10;;;;;;5044821;28;19980;-81
2023/04/23 12:25:29;;;;;;;;;;;19.50;77.60;;;;;;5059829;28;20388;-81
2023/04/23 12:27:58;;;;;;;;;;;19.30;77.60;;;;;;5077319;28;19932;-81
2023/04/23 12:30:27;;;;;;;;;;;19.30;77.50;;;;;;5076310;28;19936;-80
2023/04/23 12:32:58;;;;;;;;;;;19.30;84.60;;;;;;5061201;28;19950;-80
2023/04/23 12:35:56;;;;;;;;;;;19.30;86.30;;;;;;5061717;28;19963;-80
2023/04/23 12:38:23;;;;;;;;;;;19.20;77.40;;;;;;5055831;28;19974;-80
2023/04/23 12:40:49;;;;;;;;;;;19.10;81.00;;;;;;5076095;28;19928;-80
2023/04/23 12:43:15;;;;;;;;;;;18.90;81.60;;;;;;5086243;28;19984;-80
2023/04/23 12:45:40;;;;;;;;;;;18.80;79.60;;;;;;5086519;28;19935;-80
2023/04/23 12:48:06;;;;;;;;;;;18.60;80.40;;;;;;5050694;28;19925;-80
2023/04/23 12:50:32;;;;;;;;;;;18.60;86.30;;;;;;5084602;28;19943;-80
2023/04/23 12:52:57;;;;;;;;;;;18.60;77.80;;;;;;5062201;28;19932;-79
2023/04/23 12:55:23;;;;;;;;;;;18.60;83.40;;;;;;5093407;28;19987;-80
2023/04/23 12:57:48;;;;;;;;;;;18.80;85.40;;;;;;5076062;28;19982;-80
2023/04/23 13:00:14;;;;;;;;;;;19.00;83.80;;;;;;5075659;28;20096;-80
2023/04/23 13:02:40;;;;;;;;;;;19.20;84.70;;;;;;5076306;28;20307;-79
2023/04/23 13:05:06;;;;;;;;;;;19.40;84.80;;;;;;5075945;28;20011;-80
2023/04/23 13:07:31;;;;;;;;;;;19.50;80.50;;;;;;5058261;28;19987;-82
2023/04/23 13:09:58;;;;;;;;;;;19.60;81.90;;;;;;5036922;28;19964;-84
2023/04/23 13:12:24;;;;;;;;;;;19.90;83.20;;;;;;5059429;28;19932;-81
2023/04/23 13:14:49;;;;;;;;;;;20.00;73.90;;;;;;5076839;28;20434;-84
2023/04/23 13:17:15;;;;;;;;;;;20.00;80.60;;;;;;5054042;28;19971;-86
2023/04/23 13:19:41;;;;;;;;;;;20.10;78.90;;;;;;5041144;28;19946;-84
2023/04/23 13:22:06;;;;;;;;;;;20.00;77.20;;;;;;5094602;28;19924;-84
2023/04/23 13:24:32;;;;;;;;;;;20.00;78.00;;;;;;5077228;28;19928;-85
2023/04/23 13:26:58;;;;;;;;;;;19.80;80.10;;;;;;5094054;28;19951;-85
2023/04/23 13:29:26;;;;;;;;;;;19.70;76.40;;;;;;5061245;28;19924;-84
2023/04/23 13:31:53;;;;;;;;;;;19.50;83.20;;;;;;5060534;28;19932;-84
2023/04/23 13:34:18;;;;;;;;;;;19.40;77.80;;;;;;5075205;28;19939;-77
2023/04/23 13:36:44;;;;;;;;;;;19.20;83.20;;;;;;5058632;28;19928;-77
2023/04/23 13:39:12;;;;;;;;;;;19.10;76.90;;;;;;5075527;28;19928;-77
2023/04/23 13:41:38;;;;;;;;;;;18.90;80.20;;;;;;5066112;28;19925;-76
2023/04/23 13:44:04;;;;;;;;;;;18.80;80.70;;;;;;5077586;28;19924;-75
2023/04/23 13:46:30;;;;;;;;;;;18.60;76.60;;;;;;5080166;28;19943;-76
2023/04/23 13:48:55;;;;;;;;;;;18.60;80.10;;;;;;5077291;28;20015;-76
2023/04/23 13:51:21;;;;;;;;;;;18.50;78.80;;;;;;5075273;28;19929;-76
2023/04/23 13:53:47;;;;;;;;;;;18.50;78.60;;;;;;5057377;28;19932;-76
2023/04/23 13:56:12;;;;;;;;;;;18.60;80.00;;;;;;5061240;28;19975;-76
2023/04/23 13:58:41;;;;;;;;;;;18.60;82.30;;;;;;5080925;28;19925;-76
2023/04/23 14:01:07;;;;;;;;;;;18.70;76.90;;;;;;5075649;28;19924;-76
2023/04/23 14:03:33;;;;;;;;;;;19.00;78.50;;;;;;5073192;28;19924;-76
2023/04/23 14:05:58;;;;;;;;;;;19.10;78.60;;;;;;5061503;28;20303;-77
2023/04/23 14:08:24;;;;;;;;;;;19.30;78.40;;;;;;5088802;28;19983;-76
2023/04/23 14:10:49;;;;;;;;;;;19.30;72.90;;;;;;5090955;28;19994;-76
2023/04/23 14:13:15;;;;;;;;;;;19.30;81.70;;;;;;5070253;28;19958;-76
2023/04/23 14:15:41;;;;;;;;;;;19.60;78.60;;;;;;5074427;28;19932;-76
2023/04/23 14:18:07;;;;;;;;;;;19.60;76.10;;;;;;5088562;28;19931;-76